createdAt,value
2018-09-21T00:00:29.431Z,20.50
2018-09-21T00:02:57.099Z,20.50
2018-09-21T00:05:26.004Z,20.50
2018-09-21T00:07:53.673Z,20.50
2018-09-21T00:10:23.216Z,20.50
2018-09-21T00:12:51.648Z,20.50
2018-09-21T00:15:19.313Z,20.50
2018-09-21T00:17:46.985Z,20.50
2018-09-21T00:20:14.665Z,20.50
2018-09-21T00:22:43.257Z,20.50
2018-09-21T00:25:10.927Z,20.50
2018-09-21T00:27:38.592Z,20.50
2018-09-21T00:30:06.253Z,20.50
2018-09-21T00:32:33.972Z,20.50
2018-09-21T00:35:01.931Z,20.50
2018-09-21T00:37:30.744Z,20.50
2018-09-21T00:39:59.499Z,20.50
2018-09-21T00:42:28.806Z,20.50
2018-09-21T00:44:57.431Z,20.50
2018-09-21T00:47:25.144Z,20.50
2018-09-21T00:49:53.748Z,20.50
2018-09-21T00:52:21.959Z,20.40
2018-09-21T00:54:51.691Z,20.50
2018-09-21T00:57:21.596Z,20.40
2018-09-21T00:59:50.830Z,20.40
2018-09-21T01:02:18.526Z,20.40
2018-09-21T01:04:47.197Z,20.40
2018-09-21T01:07:15.989Z,20.40
2018-09-21T01:09:44.866Z,20.40
2018-09-21T01:12:13.463Z,20.40
2018-09-21T01:14:42.243Z,20.40
2018-09-21T01:17:10.968Z,20.40
2018-09-21T01:19:39.644Z,20.40
2018-09-21T01:22:07.405Z,20.40
2018-09-21T01:24:36.117Z,20.40
2018-09-21T01:27:04.828Z,20.40
2018-09-21T01:29:33.503Z,20.40
2018-09-21T01:32:01.191Z,20.40
2018-09-21T01:34:30.864Z,20.40
2018-09-21T01:37:00.347Z,20.40
2018-09-21T01:39:29.712Z,20.40
2018-09-21T01:41:58.773Z,20.40
2018-09-21T01:44:27.635Z,20.40
2018-09-21T01:46:55.312Z,20.40
2018-09-21T01:49:22.984Z,20.40
2018-09-21T01:51:53.063Z,20.40
2018-09-21T01:54:20.848Z,20.40
2018-09-21T01:56:49.393Z,20.40
2018-09-21T01:59:17.958Z,20.40
2018-09-21T02:01:46.507Z,20.40
2018-09-21T02:04:15.164Z,20.40
2018-09-21T02:06:43.835Z,20.40
2018-09-21T02:09:12.522Z,20.40
2018-09-21T02:11:41.197Z,20.40
2018-09-21T02:14:09.732Z,20.40
2018-09-21T02:16:37.668Z,20.40
2018-09-21T02:19:06.331Z,20.40
2018-09-21T02:21:34.682Z,20.40
2018-09-21T02:24:03.225Z,20.40
2018-09-21T02:26:31.916Z,20.40
2018-09-21T02:29:00.056Z,20.40
2018-09-21T02:31:27.788Z,20.40
2018-09-21T02:33:55.455Z,20.40
2018-09-21T02:36:24.097Z,20.40
2018-09-21T02:38:52.664Z,20.40
2018-09-21T02:41:21.708Z,20.40
2018-09-21T02:43:50.835Z,20.40
2018-09-21T02:46:18.501Z,20.40
2018-09-21T02:48:47.292Z,20.40
2018-09-21T02:51:15.133Z,20.40
2018-09-21T02:53:43.839Z,20.40
2018-09-21T02:56:11.504Z,20.40
2018-09-21T02:58:40.196Z,20.40
2018-09-21T03:01:07.948Z,20.40
2018-09-21T03:03:36.475Z,20.40
2018-09-21T03:06:05.444Z,20.40
2018-09-21T03:08:33.124Z,20.40
2018-09-21T03:11:00.804Z,20.40
2018-09-21T03:13:30.414Z,20.40
2018-09-21T03:15:59.413Z,20.40
2018-09-21T03:18:27.099Z,20.40
2018-09-21T03:20:54.760Z,20.40
2018-09-21T03:23:24.600Z,20.40
2018-09-21T03:25:52.311Z,20.40
2018-09-21T03:28:19.985Z,20.30
2018-09-21T03:30:48.598Z,20.40
2018-09-21T03:33:17.376Z,20.40
2018-09-21T03:35:46.100Z,20.40
2018-09-21T03:38:13.776Z,20.40
2018-09-21T03:40:41.660Z,20.40
2018-09-21T03:43:10.064Z,20.40
2018-09-21T03:45:39.056Z,20.40
2018-09-21T03:48:07.780Z,20.40
2018-09-21T03:50:35.483Z,20.30
2018-09-21T03:53:04.232Z,20.40
2018-09-21T03:55:31.907Z,20.40
2018-09-21T03:58:00.571Z,20.40
2018-09-21T04:00:28.280Z,20.40
2018-09-21T04:02:56.433Z,20.30
2018-09-21T04:05:24.100Z,20.30
2018-09-21T04:07:52.662Z,20.30
2018-09-21T04:10:21.811Z,20.30
2018-09-21T04:12:50.496Z,20.30
2018-09-21T04:15:19.041Z,20.30
2018-09-21T04:17:47.780Z,20.30
2018-09-21T04:20:15.444Z,20.30
2018-09-21T04:22:47.617Z,20.30
2018-09-21T04:25:16.314Z,20.30
2018-09-21T04:27:45.024Z,20.30
2018-09-21T04:30:12.693Z,20.30
2018-09-21T04:32:41.426Z,20.30
2018-09-21T04:35:10.047Z,20.30
2018-09-21T04:37:37.948Z,20.30
2018-09-21T04:40:05.667Z,20.30
2018-09-21T04:42:33.371Z,20.30
2018-09-21T04:45:01.039Z,20.20
2018-09-21T04:47:30.204Z,20.30
2018-09-21T04:50:00.250Z,20.30
2018-09-21T04:52:30.466Z,20.20
2018-09-21T04:55:00.081Z,20.30
2018-09-21T04:57:27.752Z,20.30
2018-09-21T04:59:55.488Z,20.30
2018-09-21T05:02:24.165Z,20.30
2018-09-21T05:04:53.240Z,20.30
2018-09-21T05:07:23.113Z,20.30
2018-09-21T05:09:52.164Z,20.30
2018-09-21T05:12:21.813Z,20.30
2018-09-21T05:14:49.769Z,20.30
2018-09-21T05:17:18.316Z,20.30
2018-09-21T05:19:46.039Z,20.30
2018-09-21T05:22:14.760Z,20.30
2018-09-21T05:24:42.428Z,20.30
2018-09-21T05:27:11.080Z,20.30
2018-09-21T05:29:39.626Z,20.30
2018-09-21T05:32:08.280Z,20.30
2018-09-21T05:34:35.968Z,20.30
2018-09-21T05:37:04.638Z,20.20
2018-09-21T05:39:33.218Z,20.20
2018-09-21T05:42:01.898Z,20.30
2018-09-21T05:44:30.572Z,20.20
2018-09-21T05:47:00.507Z,20.20
2018-09-21T05:49:29.376Z,20.20
2018-09-21T05:51:59.021Z,20.20
2018-09-21T05:54:27.554Z,20.20
2018-09-21T05:56:56.122Z,20.30
2018-09-21T05:59:23.789Z,20.20
2018-09-21T06:01:52.173Z,20.30
2018-09-21T06:04:21.969Z,20.30
2018-09-21T06:06:49.648Z,20.20
2018-09-21T06:09:17.377Z,20.20
2018-09-21T06:11:45.952Z,20.30
2018-09-21T06:14:13.739Z,20.30
2018-09-21T06:16:41.473Z,20.30
2018-09-21T06:19:09.140Z,20.30
2018-09-21T06:21:37.500Z,20.40
2018-09-21T06:24:05.596Z,20.50
2018-09-21T06:26:34.183Z,20.70
2018-09-21T06:29:01.854Z,20.80
2018-09-21T06:31:30.081Z,20.80
2018-09-21T06:33:59.387Z,20.90
2018-09-21T06:36:27.157Z,20.90
2018-09-21T06:38:55.716Z,21.00
2018-09-21T06:41:23.425Z,21.00
2018-09-21T06:43:53.368Z,21.00
2018-09-21T06:46:21.876Z,21.00
2018-09-21T06:48:50.998Z,21.00
2018-09-21T06:51:18.679Z,21.00
2018-09-21T06:53:46.345Z,21.00
2018-09-21T06:56:14.004Z,21.00
2018-09-21T06:58:41.712Z,21.00
2018-09-21T07:01:09.482Z,21.00
2018-09-21T07:03:37.171Z,21.00
2018-09-21T07:06:05.229Z,21.00
2018-09-21T07:08:33.954Z,21.00
2018-09-21T07:11:02.531Z,21.00
2018-09-21T07:13:30.697Z,21.00
2018-09-21T07:15:59.280Z,21.00
2018-09-21T07:18:27.064Z,21.00
2018-09-21T07:20:54.765Z,21.00
2018-09-21T07:23:23.541Z,21.00
2018-09-21T07:25:52.960Z,21.00
2018-09-21T07:28:21.798Z,21.00
2018-09-21T07:30:49.544Z,21.00
2018-09-21T07:33:18.149Z,21.00
2018-09-21T07:35:45.864Z,21.00
2018-09-21T07:38:13.645Z,21.00
2018-09-21T07:40:41.521Z,21.00
2018-09-21T07:43:10.253Z,21.00
2018-09-21T07:45:38.138Z,21.00
2018-09-21T07:48:06.745Z,21.00
2018-09-21T07:50:34.450Z,21.00
2018-09-21T07:53:02.273Z,21.00
2018-09-21T07:55:30.612Z,21.00
2018-09-21T07:57:58.336Z,21.00
2018-09-21T08:00:26.128Z,21.10
2018-09-21T08:02:53.801Z,21.10
2018-09-21T08:05:26.581Z,21.10
2018-09-21T08:07:54.296Z,21.10
2018-09-21T08:10:22.857Z,21.10
2018-09-21T08:12:51.130Z,21.10
2018-09-21T08:15:18.805Z,21.10
2018-09-21T08:17:46.576Z,21.10
2018-09-21T08:20:14.320Z,21.10
2018-09-21T08:22:41.996Z,21.10
2018-09-21T08:25:09.706Z,21.10
2018-09-21T08:27:37.364Z,21.10
2018-09-21T08:30:05.048Z,21.10
2018-09-21T08:32:32.708Z,21.00
2018-09-21T08:35:00.508Z,21.00
2018-09-21T08:37:28.976Z,21.00
2018-09-21T08:39:57.728Z,21.00
2018-09-21T08:42:25.404Z,21.00
2018-09-21T08:44:53.142Z,21.00
2018-09-21T08:47:21.780Z,21.00
2018-09-21T08:49:49.543Z,21.00
2018-09-21T08:52:17.300Z,21.00
2018-09-21T08:54:44.960Z,21.10
2018-09-21T08:57:12.680Z,21.10
2018-09-21T08:59:40.346Z,21.00
2018-09-21T09:02:09.052Z,21.10
2018-09-21T09:04:37.774Z,21.10
2018-09-21T09:07:05.832Z,21.10
2018-09-21T09:09:33.634Z,21.10
2018-09-21T09:12:02.316Z,21.00
2018-09-21T09:14:31.027Z,21.00
2018-09-21T09:16:59.316Z,21.00
2018-09-21T09:19:26.972Z,21.00
2018-09-21T09:21:55.692Z,21.00
2018-09-21T09:24:24.419Z,21.00
2018-09-21T09:26:53.200Z,21.00
2018-09-21T09:29:21.931Z,21.00
2018-09-21T09:31:49.589Z,21.00
2018-09-21T09:34:17.427Z,21.00
2018-09-21T09:36:45.107Z,21.00
2018-09-21T09:39:14.779Z,21.00
2018-09-21T09:41:42.454Z,21.00
2018-09-21T09:44:10.569Z,21.00
2018-09-21T09:46:38.252Z,21.00
2018-09-21T09:49:06.072Z,21.00
2018-09-21T09:51:33.653Z,21.00
2018-09-21T09:54:01.316Z,21.00
2018-09-21T09:56:29.820Z,21.00
2018-09-21T09:58:57.496Z,21.00
2018-09-21T10:01:25.277Z,21.00
2018-09-21T10:03:52.983Z,21.00
2018-09-21T10:06:21.122Z,21.00
2018-09-21T10:08:48.784Z,21.00
2018-09-21T10:11:17.462Z,21.00
2018-09-21T10:13:45.192Z,21.00
2018-09-21T10:16:13.049Z,21.10
2018-09-21T10:18:40.713Z,21.10
2018-09-21T10:21:08.573Z,21.10
2018-09-21T10:23:36.282Z,21.10
2018-09-21T10:26:04.815Z,21.10
2018-09-21T10:28:32.633Z,21.10
2018-09-21T10:31:01.968Z,21.10
2018-09-21T10:33:30.432Z,21.10
2018-09-21T10:35:59.340Z,21.10
2018-09-21T10:38:27.000Z,21.10
2018-09-21T10:40:54.711Z,21.00
2018-09-21T10:43:23.458Z,21.00
2018-09-21T10:45:52.075Z,21.00
2018-09-21T10:48:20.769Z,21.00
2018-09-21T10:50:48.477Z,21.00
2018-09-21T10:53:16.182Z,21.00
2018-09-21T10:55:43.840Z,21.00
2018-09-21T10:58:11.618Z,21.00
2018-09-21T11:00:39.487Z,21.00
2018-09-21T11:03:07.178Z,21.00
2018-09-21T11:05:35.829Z,21.00
2018-09-21T11:08:03.536Z,21.00
2018-09-21T11:10:31.296Z,21.00
2018-09-21T11:13:00.382Z,20.90
2018-09-21T11:15:29.801Z,21.00
2018-09-21T11:17:59.656Z,21.00
2018-09-21T11:20:27.452Z,20.90
2018-09-21T11:22:55.260Z,20.90
2018-09-21T11:25:23.022Z,20.90
2018-09-21T11:27:51.559Z,21.00
2018-09-21T11:30:19.224Z,20.90
2018-09-21T11:32:46.940Z,20.90
2018-09-21T11:35:14.780Z,21.00
2018-09-21T11:37:42.483Z,21.00
2018-09-21T11:40:11.100Z,20.90
2018-09-21T11:42:38.763Z,21.00
2018-09-21T11:45:07.409Z,20.90
2018-09-21T11:47:35.218Z,20.90
2018-09-21T11:50:02.816Z,20.90
2018-09-21T11:52:30.601Z,20.90
2018-09-21T11:54:58.339Z,20.90
2018-09-21T11:57:26.012Z,20.90
2018-09-21T11:59:53.745Z,20.90
2018-09-21T12:02:22.438Z,20.90
2018-09-21T12:04:51.215Z,20.90
2018-09-21T12:07:18.869Z,20.90
2018-09-21T12:09:46.528Z,20.90
2018-09-21T12:12:15.212Z,20.90
2018-09-21T12:14:42.882Z,20.90
2018-09-21T12:17:11.718Z,20.90
2018-09-21T12:19:39.392Z,20.90
2018-09-21T12:22:07.159Z,20.90
2018-09-21T12:24:36.006Z,20.90
2018-09-21T12:27:03.752Z,20.90
2018-09-21T12:29:31.768Z,21.00
2018-09-21T12:32:00.471Z,20.90
2018-09-21T12:34:28.384Z,20.90
2018-09-21T12:36:56.051Z,20.90
2018-09-21T12:39:23.763Z,20.90
2018-09-21T12:41:52.984Z,20.90
2018-09-21T12:44:21.261Z,20.90
2018-09-21T12:46:48.931Z,20.90
2018-09-21T12:49:17.448Z,20.90
2018-09-21T12:51:45.104Z,20.90
2018-09-21T12:54:12.763Z,20.90
2018-09-21T12:56:40.488Z,20.90
2018-09-21T12:59:08.411Z,20.90
2018-09-21T13:01:36.072Z,20.90
2018-09-21T13:04:03.788Z,20.90
2018-09-21T13:06:31.460Z,20.90
2018-09-21T13:09:01.056Z,20.80
2018-09-21T13:11:30.665Z,20.90
2018-09-21T13:13:59.247Z,20.90
2018-09-21T13:16:27.783Z,20.90
2018-09-21T13:18:56.328Z,20.90
2018-09-21T13:21:25.036Z,20.90
2018-09-21T13:23:54.173Z,20.90
2018-09-21T13:26:24.365Z,20.90
2018-09-21T13:30:17.572Z,20.90
2018-09-21T13:32:45.252Z,20.80
2018-09-21T13:35:12.923Z,20.80
2018-09-21T13:37:40.580Z,20.70
2018-09-21T13:40:08.264Z,20.70
2018-09-21T13:42:35.924Z,20.80
2018-09-21T13:45:03.611Z,20.80
2018-09-21T13:47:31.504Z,20.80
2018-09-21T13:50:01.076Z,20.80
2018-09-21T13:52:29.380Z,20.80
2018-09-21T13:54:57.081Z,20.80
2018-09-21T13:57:24.752Z,20.80
2018-09-21T13:59:53.480Z,20.80
2018-09-21T14:02:22.288Z,20.80
2018-09-21T14:04:49.963Z,20.90
2018-09-21T14:07:17.636Z,20.90
2018-09-21T14:09:45.299Z,21.00
2018-09-21T14:12:12.983Z,21.00
2018-09-21T14:14:40.652Z,21.00
2018-09-21T14:17:08.317Z,21.00
2018-09-21T14:19:36.000Z,21.10
2018-09-21T14:22:03.831Z,21.10
2018-09-21T14:24:31.530Z,21.10
2018-09-21T14:27:00.060Z,21.10
2018-09-21T14:29:27.739Z,21.10
2018-09-21T14:31:55.413Z,21.10
2018-09-21T14:34:23.512Z,21.10
2018-09-21T14:36:52.551Z,21.00
2018-09-21T14:39:20.244Z,21.00
2018-09-21T14:41:47.931Z,21.00
2018-09-21T14:44:15.612Z,20.90
2018-09-21T14:46:44.188Z,20.90
2018-09-21T14:49:12.917Z,20.80
2018-09-21T14:51:40.592Z,20.80
2018-09-21T14:54:09.315Z,20.80
2018-09-21T14:56:37.077Z,20.80
2018-09-21T14:59:05.674Z,20.80
2018-09-21T15:01:33.340Z,20.80
2018-09-21T15:04:01.053Z,20.80
2018-09-21T15:06:30.765Z,20.80
2018-09-21T15:08:59.872Z,20.80
2018-09-21T15:11:29.626Z,20.80
2018-09-21T15:13:57.333Z,20.80
2018-09-21T15:16:25.120Z,20.80
2018-09-21T15:18:53.614Z,20.80
2018-09-21T15:21:23.404Z,20.80
2018-09-21T15:23:52.053Z,20.80
2018-09-21T15:26:21.548Z,20.80
2018-09-21T15:28:49.220Z,20.80
2018-09-21T15:31:17.823Z,20.80
2018-09-21T15:33:45.497Z,20.80
2018-09-21T15:36:13.221Z,20.70
2018-09-21T15:38:41.768Z,20.70
2018-09-21T15:41:10.501Z,20.70
2018-09-21T15:43:39.247Z,20.70
2018-09-21T15:46:06.879Z,20.70
2018-09-21T15:48:35.452Z,20.70
2018-09-21T15:51:04.003Z,20.70
2018-09-21T15:53:32.569Z,20.70
2018-09-21T15:56:08.234Z,20.70
2018-09-21T15:58:36.879Z,20.70
2018-09-21T16:01:04.556Z,20.70
2018-09-21T16:03:32.265Z,20.60
2018-09-21T16:06:02.676Z,20.60
2018-09-21T16:08:31.772Z,20.60
2018-09-21T16:11:00.225Z,20.60
2018-09-21T16:13:27.916Z,20.60
2018-09-21T16:15:55.956Z,20.60
2018-09-21T16:18:24.521Z,20.60
2018-09-21T16:20:52.944Z,20.60
2018-09-21T16:23:21.474Z,20.60
2018-09-21T16:25:49.184Z,20.60
2018-09-21T16:28:17.738Z,20.60
2018-09-21T16:30:45.616Z,20.60
2018-09-21T16:33:13.292Z,20.50
2018-09-21T16:35:41.289Z,20.50
2018-09-21T16:38:10.151Z,20.50
2018-09-21T16:40:37.921Z,20.50
2018-09-21T16:43:05.664Z,20.50
2018-09-21T16:45:33.330Z,20.50
2018-09-21T16:48:01.133Z,20.50
2018-09-21T16:50:30.162Z,20.60
2018-09-21T16:52:57.849Z,20.50
2018-09-21T16:55:25.557Z,20.50
2018-09-21T16:57:53.277Z,20.50
2018-09-21T17:00:21.396Z,20.50
2018-09-21T17:02:49.117Z,20.50
2018-09-21T17:05:16.852Z,20.50
2018-09-21T17:07:44.588Z,20.50
2018-09-21T17:10:13.181Z,20.60
2018-09-21T17:12:40.871Z,20.70
2018-09-21T17:15:08.593Z,20.80
2018-09-21T17:17:36.391Z,20.90
2018-09-21T17:20:04.118Z,20.90
2018-09-21T17:22:32.691Z,21.00
2018-09-21T17:25:01.044Z,21.10
2018-09-21T17:27:30.317Z,21.10
2018-09-21T17:29:58.941Z,21.20
2018-09-21T17:32:26.607Z,21.20
2018-09-21T17:34:55.337Z,21.20
2018-09-21T17:37:24.288Z,21.20
2018-09-21T17:39:53.628Z,21.10
2018-09-21T17:42:22.329Z,21.10
2018-09-21T17:44:50.064Z,21.10
2018-09-21T17:47:18.815Z,21.10
2018-09-21T17:49:46.473Z,21.10
2018-09-21T17:52:14.139Z,21.10
2018-09-21T17:54:41.804Z,21.10
2018-09-21T17:57:09.550Z,21.10
2018-09-21T17:59:37.232Z,21.10
2018-09-21T18:02:04.908Z,21.10
2018-09-21T18:04:32.628Z,21.10
2018-09-21T18:07:02.631Z,21.00
2018-09-21T18:09:32.958Z,21.00
2018-09-21T18:12:00.759Z,21.00
2018-09-21T18:14:29.450Z,21.00
2018-09-21T18:16:57.693Z,21.00
2018-09-21T18:19:26.512Z,21.00
2018-09-21T18:21:54.201Z,21.00
2018-09-21T18:24:23.784Z,21.00
2018-09-21T18:26:51.505Z,21.00
2018-09-21T18:29:20.070Z,21.00
2018-09-21T18:31:48.776Z,21.00
2018-09-21T18:34:17.326Z,21.00
2018-09-21T18:36:45.002Z,21.00
2018-09-21T18:39:12.723Z,21.00
2018-09-21T18:41:40.945Z,21.00
2018-09-21T18:44:09.564Z,21.00
2018-09-21T18:46:37.249Z,20.90
2018-09-21T18:49:06.005Z,20.90
2018-09-21T18:51:33.759Z,20.90
2018-09-21T18:54:01.457Z,20.90
2018-09-21T18:56:29.933Z,20.90
2018-09-21T18:58:59.455Z,20.90
2018-09-21T19:01:27.172Z,20.90
2018-09-21T19:03:54.883Z,20.90
2018-09-21T19:06:23.116Z,20.90
2018-09-21T19:08:51.487Z,20.90
2018-09-21T19:11:19.368Z,20.90
2018-09-21T19:13:47.114Z,20.90
2018-09-21T19:16:14.808Z,20.90
2018-09-21T19:18:42.464Z,20.90
2018-09-21T19:21:10.128Z,20.90
2018-09-21T19:23:37.835Z,20.80
2018-09-21T19:26:05.736Z,20.80
2018-09-21T19:28:33.417Z,20.60
2018-09-21T19:31:01.097Z,20.60
2018-09-21T19:33:29.502Z,20.60
2018-09-21T19:35:57.254Z,20.70
2018-09-21T19:38:24.960Z,20.70
2018-09-21T19:40:53.732Z,20.80
2018-09-21T19:43:21.476Z,20.80
2018-09-21T19:45:50.172Z,20.80
2018-09-21T19:48:17.788Z,20.80
2018-09-21T19:50:45.484Z,20.80
2018-09-21T19:53:13.181Z,20.80
2018-09-21T19:55:40.871Z,20.70
2018-09-21T19:58:09.207Z,20.50
2018-09-21T20:00:36.877Z,20.40
2018-09-21T20:03:05.575Z,20.30
2018-09-21T20:05:33.260Z,20.20
2018-09-21T20:08:00.945Z,20.30
2018-09-21T20:10:30.194Z,20.40
2018-09-21T20:12:57.884Z,20.50
2018-09-21T20:15:25.593Z,20.60
2018-09-21T20:17:53.274Z,20.60
2018-09-21T20:20:22.282Z,20.60
2018-09-21T20:22:50.230Z,20.60
2018-09-21T20:25:18.811Z,20.70
2018-09-21T20:27:46.480Z,20.70
2018-09-21T20:30:19.637Z,20.70
2018-09-21T20:32:52.856Z,20.70
2018-09-21T20:35:20.539Z,20.60
2018-09-21T20:37:48.432Z,20.60
2018-09-21T20:40:17.528Z,20.60
2018-09-21T20:42:45.280Z,20.60
2018-09-21T20:45:13.984Z,20.60
2018-09-21T20:47:42.840Z,20.60
2018-09-21T20:50:10.509Z,20.60
2018-09-21T20:52:39.135Z,20.60
2018-09-21T20:55:07.780Z,20.60
2018-09-21T20:57:36.479Z,20.60
2018-09-21T21:00:05.040Z,20.60
2018-09-21T21:02:32.708Z,20.60
2018-09-21T21:05:01.011Z,20.50
2018-09-21T21:07:29.397Z,20.60
2018-09-21T21:09:57.119Z,20.50
2018-09-21T21:12:24.779Z,20.60
2018-09-21T21:14:53.299Z,20.60
2018-09-21T21:17:21.582Z,20.60
2018-09-21T21:19:50.128Z,20.60
2018-09-21T21:22:19.027Z,20.60
2018-09-21T21:24:47.580Z,20.60
2018-09-21T21:27:15.253Z,20.50
2018-09-21T21:29:43.937Z,20.50
2018-09-21T21:32:11.623Z,20.50
2018-09-21T21:34:40.328Z,20.40
2018-09-21T21:37:09.188Z,20.40
2018-09-21T21:39:37.543Z,20.40
2018-09-21T21:42:05.420Z,20.40
2018-09-21T21:44:34.017Z,20.50
2018-09-21T21:47:02.816Z,20.50
2018-09-21T21:49:31.491Z,20.50
2018-09-21T21:52:00.619Z,20.50
2018-09-21T21:54:29.221Z,20.50
2018-09-21T21:56:56.895Z,20.50
2018-09-21T21:59:24.571Z,20.50
2018-09-21T22:01:52.376Z,20.50
2018-09-21T22:04:20.053Z,20.50
2018-09-21T22:06:48.612Z,20.50
2018-09-21T22:09:16.276Z,20.50
2018-09-21T22:11:49.523Z,20.50
2018-09-21T22:14:17.201Z,20.50
2018-09-21T22:16:44.942Z,20.50
2018-09-21T22:19:12.620Z,20.40
2018-09-21T22:21:41.300Z,20.40
2018-09-21T22:24:08.976Z,20.40
2018-09-21T22:26:36.836Z,20.40
2018-09-21T22:29:04.503Z,20.40
2018-09-21T22:31:33.178Z,20.40
2018-09-21T22:34:01.858Z,20.40
2018-09-21T22:36:30.141Z,20.40
2018-09-21T22:38:59.378Z,20.40
2018-09-21T22:41:29.013Z,20.40
2018-09-21T22:43:56.718Z,20.40
2018-09-21T22:46:25.297Z,20.40
2018-09-21T22:48:55.032Z,20.40
2018-09-21T22:51:23.604Z,20.40
2018-09-21T22:53:51.988Z,20.40
2018-09-21T22:56:20.663Z,20.40
2018-09-21T22:58:49.388Z,20.40
2018-09-21T23:01:18.083Z,20.40
2018-09-21T23:03:46.780Z,20.40
2018-09-21T23:06:15.474Z,20.40
2018-09-21T23:08:44.163Z,20.40
2018-09-21T23:11:11.888Z,20.40
2018-09-21T23:13:39.576Z,20.40
2018-09-21T23:16:07.298Z,20.40
2018-09-21T23:18:34.972Z,20.40
2018-09-21T23:21:02.660Z,20.40
2018-09-21T23:23:31.735Z,20.40
2018-09-21T23:26:00.761Z,20.40
2018-09-21T23:28:30.505Z,20.40
2018-09-21T23:30:59.091Z,20.40
2018-09-21T23:33:27.662Z,20.30
2018-09-21T23:35:55.343Z,20.30
2018-09-21T23:38:23.924Z,20.30
2018-09-21T23:40:51.635Z,20.30
2018-09-21T23:43:20.319Z,20.40
2018-09-21T23:45:48.029Z,20.30
2018-09-21T23:48:15.708Z,20.30
2018-09-21T23:50:44.304Z,20.30
2018-09-21T23:53:11.975Z,20.40
2018-09-21T23:55:40.654Z,20.30
2018-09-21T23:58:09.207Z,20.30
